Time;durP1;ratioP1;P1;durP2;ratioP2;P2;SDS_P1;SDS_P2;PMS_P1;PMS_P2;Temp;Humidity;BMP_temperature;BMP_pressure;BME280_temperature;BME280_humidity;BME280_pressure;Samples;Min_cycle;Max_cycle;Signal;HPM_P1;HPM_P2
2022/03/06 00:01:05;;;;;;;3.17;2.92;;;;;;;3.59;100.00;99765.56;5086298;28;19967;-87
2022/03/06 00:03:31;;;;;;;4.70;4.13;;;;;;;3.52;100.00;99753.28;5082415;28;20040;-86
2022/03/06 00:05:57;;;;;;;5.72;3.78;;;;;;;3.70;100.00;99770.94;5089937;28;20038;-84
2022/03/06 00:08:22;;;;;;;;;;;;;;;3.83;100.00;99785.00;5083698;28;20036;-86
2022/03/06 00:10:48;;;;;;;4.07;3.88;;;;;;;3.63;100.00;99767.38;5077108;28;20404;-85
2022/03/06 00:13:14;;;;;;;6.30;3.55;;;;;;;3.75;100.00;99783.19;5087405;28;20036;-86
2022/03/06 00:15:41;;;;;;;4.97;4.57;;;;;;;3.78;100.00;99784.94;5068179;28;20506;-86
2022/03/06 00:18:07;;;;;;;4.65;4.35;;;;;;;3.81;100.00;99782.38;5067501;28;20567;-86
2022/03/06 00:20:32;;;;;;;;;;;;;;;3.78;100.00;99781.47;5073829;28;20115;-86
2022/03/06 00:22:57;;;;;;;5.68;4.40;;;;;;;3.66;100.00;99769.13;5091191;28;19916;-86
2022/03/06 00:25:23;;;;;;;4.15;3.65;;;;;;;3.36;100.00;99732.19;5087227;28;20072;-85
2022/03/06 00:27:48;;;;;;;;;;;;;;;3.75;100.00;99783.19;5093312;28;20108;-86
2022/03/06 00:30:14;;;;;;;;;;;;;;;3.76;100.00;99784.06;5087666;28;19912;-85
2022/03/06 00:32:39;;;;;;;12.27;3.72;;;;;;;3.71;100.00;99773.56;5087463;28;20730;-87
2022/03/06 00:35:05;;;;;;;;;;;;;;;3.83;100.00;99774.56;5087502;28;20032;-86
2022/03/06 00:37:30;;;;;;;;;;;;;;;3.78;100.00;99771.03;5087102;28;19920;-85
2022/03/06 00:39:56;;;;;;;2.42;2.33;;;;;;;3.63;100.00;99756.94;5087450;28;19912;-86
2022/03/06 00:42:22;;;;;;;2.88;2.67;;;;;;;3.58;100.00;99743.81;5100628;28;20118;-87
2022/03/06 00:44:47;;;;;;;3.28;3.08;;;;;;;3.51;100.00;99747.19;5105443;28;20490;-86
2022/03/06 00:47:12;;;;;;;;;;;;;;;3.74;100.00;99775.34;5087954;28;20028;-86
2022/03/06 00:49:38;;;;;;;2.85;2.65;;;;;;;3.68;100.00;99762.22;5085513;28;20449;-85
2022/03/06 00:52:03;;;;;;;;;;;;;;;3.69;100.00;99766.56;5087138;28;20600;-86
2022/03/06 00:54:29;;;;;;;2.45;2.35;;;;;;;3.58;100.00;99758.56;5090286;28;20431;-86
2022/03/06 00:56:54;;;;;;;;;;;;;;;3.75;100.00;99775.38;5106206;28;20614;-85
2022/03/06 00:59:20;;;;;;;;;;;;;;;3.64;99.84;99770.84;5103058;28;19927;-86
2022/03/06 01:01:45;;;;;;;2.47;2.27;;;;;;;3.49;100.00;99742.78;5086978;28;20008;-86
2022/03/06 01:04:10;;;;;;;;;;;;;;;3.54;99.98;99762.88;5086929;28;20074;-86
2022/03/06 01:06:36;;;;;;;;;;;;;;;3.61;99.78;99758.63;5101551;28;20056;-86
2022/03/06 01:09:05;;;;;;;4.68;4.32;;;;;;;3.42;99.46;99735.75;5107222;28;19916;-87
2022/03/06 01:11:31;;;;;;;5.80;5.22;;;;;;;3.32;100.00;99730.41;5089754;28;20032;-86
2022/03/06 01:13:56;;;;;;;;;;;;;;;3.50;100.00;99762.81;5095445;28;20035;-87
2022/03/06 01:16:22;;;;;;;4.97;4.45;;;;;;;3.46;100.00;99761.00;5092637;28;19923;-87
2022/03/06 01:18:47;;;;;;;;;;;;;;;3.52;100.00;99763.69;5086814;28;20028;-86
2022/03/06 01:21:12;;;;;;;;;;;;;;;3.53;100.00;99762.84;5088044;28;20703;-87
2022/03/06 01:23:38;;;;;;;4.80;4.47;;;;;;;3.30;100.00;99747.75;5087730;28;19966;-87
2022/03/06 01:26:04;;;;;;;;;;;;;;;3.48;100.00;99761.94;5087134;28;20306;-87
2022/03/06 01:28:29;;;;;;;2.88;2.75;;;;;;;3.25;100.00;99733.75;5086655;28;20378;-86
2022/03/06 01:30:55;;;;;;;;;;;;;;;3.34;100.00;99766.94;5087147;28;20036;-86
2022/03/06 01:33:20;;;;;;;3.13;2.88;;;;;;;3.19;100.00;99734.53;5105271;28;19920;-86
2022/03/06 01:35:46;;;;;;;;;;;;;;;3.43;99.79;99758.34;5105378;28;20188;-86
2022/03/06 01:38:11;;;;;;;;;;;;;;;3.33;99.81;99762.56;5107287;28;19915;-86
2022/03/06 01:40:36;;;;;;;5.60;3.50;;;;;;;3.15;99.62;99726.66;5105081;28;19916;-86
2022/03/06 01:43:03;;;;;;;;;;;;;;;3.32;99.45;99751.25;5107476;28;20042;-87
2022/03/06 01:45:29;;;;;;;1.60;1.50;;;;;;;3.18;99.66;99742.34;5106564;28;20417;-86
2022/03/06 01:47:55;;;;;;;;;;;;;;;3.23;100.00;99749.38;5107401;28;20143;-87
2022/03/06 01:50:27;;;;;;;4.28;4.03;;;;;;;2.83;99.77;99685.34;5106906;28;20320;-86
2022/03/06 01:52:54;;;;;;;5.13;3.50;;;;;;;2.96;99.72;99712.44;5087484;28;20510;-86
2022/03/06 01:55:22;;;;;;;7.75;6.32;;;;;;;2.88;100.00;99720.16;5088568;28;20421;-86
2022/03/06 01:57:48;;;;;;;4.07;3.70;;;;;;;3.10;99.84;99752.63;5106708;28;20028;-86
2022/03/06 02:00:16;;;;;;;;;;;;;;;3.06;99.89;99753.47;5103206;28;20043;-86
2022/03/06 02:02:42;;;;;;;2.97;2.70;;;;;;;2.89;99.67;99716.69;5066416;28;19921;-86
2022/03/06 02:05:07;;;;;;;;;;;;;;;3.03;99.98;99758.63;5069427;28;20036;-87
2022/03/06 02:07:33;;;;;;;3.17;2.97;;;;;;;2.91;99.97;99738.44;5086070;28;19920;-87
2022/03/06 02:09:59;;;;;;;;;;;;;;;3.08;100.00;99766.53;5085416;28;20051;-87
2022/03/06 02:12:25;;;;;;;5.13;4.63;;;;;;;2.66;99.49;99713.72;5094276;28;19927;-87
2022/03/06 02:14:51;;;;;;;;;;;;;;;2.81;99.58;99760.88;5088189;28;20036;-87
2022/03/06 02:17:17;;;;;;;3.50;3.20;;;;;;;2.82;99.40;99757.38;5108779;28;19923;-86
2022/03/06 02:19:52;;;;;;;;;;;;;;;2.84;99.52;99766.13;5106371;28;20035;-87
2022/03/06 02:22:21;;;;;;;2.67;2.47;;;;;;;2.60;99.76;99735.31;5089258;28;19916;-86
2022/03/06 02:24:46;;;;;;;3.55;3.35;;;;;;;2.86;99.71;99773.97;5088801;28;20036;-86
2022/03/06 02:27:12;;;;;;;;;;;;;;;2.75;99.64;99762.47;5088360;28;20406;-87
2022/03/06 02:29:41;;;;;;;2.38;2.22;;;;;;;2.76;99.84;99759.88;5088364;28;20329;-87
2022/03/06 02:32:12;;;;;;;6.35;5.75;;;;;;;2.65;98.40;99749.28;5109774;28;20191;-88
2022/03/06 02:34:40;;;;;;;5.53;5.13;;;;;;;2.59;99.15;99746.56;5090690;28;20536;-88
2022/03/06 02:37:06;;;;;;;2.05;1.90;;;;;;;2.68;98.61;99777.13;5099074;28;20138;-87
2022/03/06 02:39:31;;;;;;;;;;;;;;;2.76;99.74;99765.09;5096908;28;20110;-87
2022/03/06 02:41:57;;;;;;;6.65;6.25;;;;;;;2.66;98.52;99758.00;5108617;28;19923;-87
2022/03/06 02:44:22;;;;;;;;;;;;;;;2.66;98.44;99777.09;5093040;28;20065;-87
2022/03/06 02:46:49;;;;;;;3.63;3.42;;;;;;;2.59;98.64;99754.38;5102630;28;20381;-87
2022/03/06 02:49:17;;;;;;;3.65;3.45;;;;;;;2.69;99.13;99763.25;5107243;28;20130;-87
2022/03/06 02:51:46;;;;;;;3.90;3.63;;;;;;;2.28;98.91;99706.94;5108302;28;20118;-87
2022/03/06 02:54:20;;;;;;;3.03;2.78;;;;;;;2.39;98.75;99737.50;5096570;28;20036;-87
2022/03/06 02:56:49;;;;;;;4.57;4.13;;;;;;;2.37;98.59;99737.50;5087719;28;20469;-87
2022/03/06 02:59:16;;;;;;;3.80;3.50;;;;;;;2.10;98.69;99707.50;5098373;28;20031;-86
2022/03/06 03:01:41;;;;;;;2.30;2.10;;;;;;;2.14;98.75;99721.44;5109460;28;20032;-86
2022/03/06 03:04:10;;;;;;;;;;;;;;;2.38;98.63;99780.00;5097717;28;20108;-86
2022/03/06 03:06:36;;;;;;;4.47;3.60;;;;;;;2.19;98.82;99743.22;5089217;28;19923;-87
2022/03/06 03:09:07;;;;;;;3.38;3.15;;;;;;;2.33;98.50;99783.44;5088680;28;20024;-87
2022/03/06 03:11:33;;;;;;;2.67;2.47;;;;;;;2.21;99.10;99764.06;5088525;28;20085;-87
2022/03/06 03:14:01;;;;;;;2.05;1.95;;;;;;;2.31;98.87;99773.81;5099370;28;20045;-87
2022/03/06 03:16:27;;;;;;;5.72;5.18;;;;;;;2.22;98.68;99784.03;5108896;28;20036;-86
2022/03/06 03:18:53;;;;;;;5.38;4.60;;;;;;;1.94;99.17;99747.06;5097786;28;20085;-86
2022/03/06 03:21:18;;;;;;;;;;;;;;;2.18;99.48;99780.50;5088915;28;20475;-86
2022/03/06 03:23:44;;;;;;;;;;;;;;;2.25;98.79;99784.09;5096780;28;19962;-87
2022/03/06 03:26:09;;;;;;;8.37;4.50;;;;;;;1.84;98.99;99729.47;5105981;28;19927;-87
2022/03/06 03:28:34;;;;;;;;;;;;;;;2.20;99.09;99784.00;5109338;28;20261;-87
2022/03/06 03:31:00;;;;;;;;;;;;;;;2.20;99.13;99786.63;5109303;28;19911;-87
2022/03/06 03:33:25;;;;;;;4.20;3.65;;;;;;;2.05;99.64;99766.34;5105642;28;19961;-86
2022/03/06 03:35:51;;;;;;;;;;;;;;;2.11;99.90;99784.69;5106612;28;20122;-86
2022/03/06 03:38:16;;;;;;;;;;;;;;;2.09;99.68;99777.72;5108646;28;19998;-87
2022/03/06 03:40:42;;;;;;;2.33;2.15;;;;;;;2.00;99.26;99769.72;5108836;28;19915;-87
2022/03/06 03:43:07;;;;;;;;;;;;;;;2.17;99.09;99790.91;5109127;28;20119;-86
2022/03/06 03:45:32;;;;;;;;;;;;;;;1.99;99.73;99786.19;5091477;28;20684;-85
2022/03/06 03:47:58;;;;;;;4.43;4.20;;;;;;;1.91;99.90;99780.81;5108868;28;19985;-86
2022/03/06 03:50:23;;;;;;;;;;;;;;;1.88;99.84;99783.34;5107895;28;21260;-86
2022/03/06 03:52:48;;;;;;;;;;;;;;;1.99;100.00;99792.25;5107400;28;20002;-86
2022/03/06 03:55:15;;;;;;;6.15;5.65;;;;;;;1.91;100.00;99783.41;5087162;28;19920;-85
2022/03/06 03:57:40;;;;;;;3.47;3.25;;;;;;;1.77;100.00;99776.19;5101640;28;20521;-87
2022/03/06 04:00:06;;;;;;;;;;;;;;;1.89;100.00;99798.13;5087842;28;20020;-85
2022/03/06 04:02:32;;;;;;;;;;;;;;;1.91;100.00;99791.22;5087999;28;19941;-86
2022/03/06 04:04:57;;;;;;;2.30;2.20;;;;;;;1.91;100.00;99791.22;5088765;28;19920;-86
2022/03/06 04:07:23;;;;;;;;;;;;;;;1.92;100.00;99799.06;5108060;28;20410;-85
2022/03/06 04:09:48;;;;;;;2.58;2.45;;;;;;;1.82;100.00;99789.28;5091141;28;20678;-84
2022/03/06 04:12:14;;;;;;;;;;;;;;;1.75;100.00;99795.22;5087753;28;20459;-85
2022/03/06 04:14:39;;;;;;;2.92;2.72;;;;;;;1.54;100.00;99749.66;5101890;28;19920;-85
2022/03/06 04:17:05;;;;;;;;;;;;;;;1.79;100.00;99764.09;5101795;28;20563;-84
2022/03/06 04:19:30;;;;;;;;;;;;;;;1.90;100.00;99799.84;5088354;28;19912;-85
2022/03/06 04:21:55;;;;;;;2.23;1.70;;;;;;;1.81;100.00;99782.34;5086303;28;19920;-85
2022/03/06 04:24:21;;;;;;;;;;;;;;;1.95;99.96;99798.25;5100027;28;20265;-85
2022/03/06 04:26:46;;;;;;;2.35;2.25;;;;;;;1.77;99.68;99767.50;5087317;28;19923;-86
2022/03/06 04:29:11;;;;;;;;;;;;;;;1.97;100.00;99797.41;5088071;28;20521;-86
2022/03/06 04:31:37;;;;;;;;;;;;;;;1.94;100.00;99796.50;5087366;28;19967;-85
2022/03/06 04:34:02;;;;;;;2.13;2.03;;;;;;;1.89;99.83;99790.31;5096191;28;19919;-85
2022/03/06 04:36:28;;;;;;;;;;;;;;;1.97;99.85;99792.22;5102412;28;21101;-84
2022/03/06 04:38:53;;;;;;;6.60;5.97;;;;;;;1.81;99.90;99789.25;5087083;28;19978;-84
2022/03/06 04:41:19;;;;;;;;;;;;;;;1.86;100.00;99796.31;5086565;28;20063;-85
2022/03/06 04:43:44;;;;;;;;;;;;;;;1.78;100.00;99793.56;5097391;28;19924;-85
2022/03/06 04:48:31;;;;;;;2.47;2.37;;;;;;;1.81;100.00;99795.34;5064515;28;20420;-83
2022/03/06 04:50:56;;;;;;;4.78;3.33;;;;;;;1.92;99.69;99783.44;5061380;28;20377;-85
2022/03/06 04:53:21;;;;;;;;;;;;;;;1.99;98.95;99797.44;5071521;28;20142;-84
2022/03/06 04:55:47;;;;;;;;;;;;;;;2.01;99.19;99797.47;5084207;28;19916;-83
2022/03/06 04:58:12;;;;;;;2.25;2.15;;;;;;;1.96;98.71;99797.38;5084007;28;19916;-83
2022/03/06 05:00:38;;;;;;;;;;;;;;;1.90;100.00;99792.94;5079612;28;20033;-84
2022/03/06 05:03:03;;;;;;;3.00;2.80;;;;;;;1.65;99.74;99756.84;5065491;28;19919;-85
2022/03/06 05:05:29;;;;;;;;;;;;;;;1.87;100.00;99797.19;5063026;28;20029;-83
2022/03/06 05:07:54;;;;;;;;;;;;;;;1.84;100.00;99799.72;5064306;28;19916;-85
2022/03/06 05:10:20;;;;;;;4.32;4.03;;;;;;;1.79;100.00;99797.03;5049609;28;19959;-83
2022/03/06 05:12:45;;;;;;;;;;;;;;;1.87;100.00;99803.28;5057033;28;20036;-84
2022/03/06 05:15:12;;;;;;;2.92;2.80;;;;;;;1.89;100.00;99793.78;5082639;28;19916;-84
2022/03/06 05:17:41;;;;;;;3.08;2.88;;;;;;;1.79;100.00;99787.50;5077389;28;20029;-84
2022/03/06 05:20:09;;;;;;;3.17;2.97;;;;;;;1.90;100.00;99810.25;5043217;28;20037;-83
2022/03/06 05:22:34;;;;;;;7.53;3.78;;;;;;;1.81;100.00;99810.97;5062729;28;20021;-84
2022/03/06 05:25:00;;;;;;;;;;;;;;;1.89;100.00;99813.72;5064456;28;20067;-85
2022/03/06 05:27:27;;;;;;;5.45;4.63;;;;;;;1.81;100.00;99786.66;5069446;28;20356;-83
2022/03/06 05:29:52;;;;;;;3.08;2.88;;;;;;;1.71;100.00;99793.38;5063543;28;20076;-84
2022/03/06 05:32:17;;;;;;;;;;;;;;;1.92;100.00;99825.06;5064359;28;20064;-84
2022/03/06 05:34:43;;;;;;;2.97;2.78;;;;;;;1.85;99.92;99817.97;5065123;28;19913;-84
2022/03/06 05:37:08;;;;;;;;;;;;;;;1.80;99.86;99811.78;5062771;28;20031;-84
2022/03/06 05:39:34;;;;;;;;;;;;;;;1.89;100.00;99817.19;5063278;28;19982;-83
2022/03/06 05:41:59;;;;;;;3.40;2.88;;;;;;;1.63;100.00;99820.94;5062381;28;20279;-83
2022/03/06 05:44:24;;;;;;;;;;;;;;;1.73;100.00;99817.69;5082790;28;20839;-85
2022/03/06 05:46:50;;;;;;;;;;;;;;;1.73;100.00;99817.69;5067256;28;19970;-83
2022/03/06 05:49:16;;;;;;;2.85;2.75;;;;;;;1.66;100.00;99813.22;5062943;28;20589;-85
2022/03/06 05:51:42;;;;;;;;;;;;;;;1.75;100.00;99831.63;5060808;28;20041;-83
2022/03/06 05:54:08;;;;;;;2.97;2.72;;;;;;;1.45;100.00;99775.44;5062083;28;20379;-83
2022/03/06 05:56:34;;;;;;;3.45;3.25;;;;;;;1.65;100.00;99808.84;5062340;28;20419;-84
2022/03/06 06:01:18;;;;;;;2.40;2.30;;;;;;;1.70;100.00;99823.72;5091568;27;1599997;-83
2022/03/06 06:03:44;;;;;;;6.65;6.15;;;;;;;1.86;100.00;99855.28;5124793;28;20294;-84
2022/03/06 06:06:09;;;;;;;;;;;;;;;1.86;99.88;99848.34;5125347;27;20039;-83
2022/03/06 06:08:34;;;;;;;;;;;;;;;1.71;100.00;99855.81;5124875;27;19926;-83
2022/03/06 06:11:00;;;;;;;2.83;2.60;;;;;;;1.58;100.00;99807.84;5108912;28;19920;-83
2022/03/06 06:13:26;;;;;;;;;;;;;;;1.90;100.00;99836.28;5117803;28;20291;-82
2022/03/06 06:15:51;;;;;;;3.50;3.30;;;;;;;1.60;99.79;99813.94;5124231;27;20316;-82
2022/03/06 06:18:18;;;;;;;;;;;;;;;1.78;100.00;99839.50;5125046;28;20067;-82
2022/03/06 06:20:44;;;;;;;6.25;5.13;;;;;;;1.67;100.00;99813.25;5123558;27;19920;-82
2022/03/06 06:23:09;;;;;;;;;;;;;;;1.74;100.00;99848.94;5124412;27;20041;-81
2022/03/06 06:25:34;;;;;;;2.00;1.90;;;;;;;1.61;100.00;99844.31;5120152;27;19920;-81
2022/03/06 06:28:00;;;;;;;;;;;;;;;1.72;100.00;99863.63;5124557;27;20027;-82
2022/03/06 06:30:26;;;;;;;;;;;;;;;1.70;99.90;99860.13;5123716;28;19964;-84
2022/03/06 06:32:51;;;;;;;3.33;3.13;;;;;;;1.49;100.00;99808.50;5124483;27;19911;-83
2022/03/06 06:35:16;;;;;;;;;;;;;;;1.63;100.00;99855.63;5117991;27;20054;-85
2022/03/06 06:37:42;;;;;;;4.07;3.78;;;;;;;1.66;100.00;99845.28;5123170;27;19916;-84
2022/03/06 06:40:07;;;;;;;;;;;;;;;1.66;100.00;99854.81;5124423;28;20555;-82
2022/03/06 06:42:33;;;;;;;;;;;;;;;1.60;100.00;99853.81;5117651;27;19947;-84
2022/03/06 06:44:58;;;;;;;;;;;;;;;1.58;100.00;99859.84;5113235;28;19911;-84
2022/03/06 06:47:23;;;;;;;3.78;3.53;;;;;;;1.52;100.00;99854.50;5119085;28;19926;-84
2022/03/06 06:49:49;;;;;;;;;;;;;;;1.58;100.00;99858.13;5104295;28;20109;-82
2022/03/06 06:52:14;;;;;;;;;;;;;;;1.64;100.00;99866.88;5105403;28;19923;-83
2022/03/06 06:56:53;;;;;;;3.95;3.72;;;;;;;1.56;100.00;99857.22;5062395;27;2244137;-82
2022/03/06 06:59:19;;;;;;;1.60;1.52;;;;;;;1.47;100.00;99832.69;5104464;28;20400;-85
2022/03/06 07:01:45;;;;;;;3.92;3.72;;;;;;;1.57;100.00;99825.13;5123341;28;20031;-88
2022/03/06 07:04:10;;;;;;;;;;;;;;;1.71;100.00;99855.81;5123757;28;20140;-84
2022/03/06 07:06:35;;;;;;;2.92;2.72;;;;;;;1.53;100.00;99833.72;5116863;28;19922;-86
2022/03/06 07:09:01;;;;;;;;;;;;;;;1.79;100.00;99862.94;5104927;28;20042;-86
2022/03/06 07:11:26;;;;;;;;;;;;;;;1.92;100.00;99855.44;5115900;28;19916;-85
2022/03/06 07:13:52;;;;;;;3.63;3.42;;;;;;;1.73;100.00;99825.50;5114170;28;20380;-85
2022/03/06 07:16:17;;;;;;;;;;;;;;;1.89;100.00;99858.81;5108673;28;20039;-83
2022/03/06 07:18:43;;;;;;;;;;;;;;;1.79;100.00;99856.84;5124580;28;19922;-82
2022/03/06 07:21:09;;;;;;;;;;;;;;;1.77;100.00;99862.00;5106653;28;19921;-84
2022/03/06 07:23:34;;;;;;;16.00;6.47;;;;;;;1.48;100.00;99818.84;5104380;28;19923;-86
2022/03/06 07:25:59;;;;;;;;;;;;;;;1.79;100.00;99865.56;5104928;28;20446;-82
2022/03/06 07:28:25;;;;;;;;;;;;;;;1.84;100.00;99862.16;5104643;28;19912;-81
2022/03/06 07:30:50;;;;;;;3.15;2.95;;;;;;;1.70;100.00;99844.53;5109213;28;19916;-84
2022/03/06 07:33:16;;;;;;;;;;;;;;;1.78;100.00;99855.09;5104277;28;20036;-87
2022/03/06 07:35:41;;;;;;;6.18;1.63;;;;;;;1.73;100.00;99848.91;5085424;28;19912;-83
2022/03/06 07:38:07;;;;;;;;;;;;;;;1.88;100.00;99857.06;5104598;28;20035;-83
2022/03/06 07:40:32;;;;;;;;;;;;;;;1.97;100.00;99856.41;5103883;28;19912;-84
2022/03/06 07:42:58;;;;;;;3.20;2.97;;;;;;;1.74;100.00;99816.84;5105166;28;19951;-83
2022/03/06 07:45:23;;;;;;;;;;;;;;;1.74;100.00;99854.13;5104904;28;20067;-84
2022/03/06 07:47:49;;;;;;;;;;;;;;;1.54;100.00;99845.00;5104250;28;20318;-83
2022/03/06 07:50:15;;;;;;;3.28;3.10;;;;;;;1.45;100.00;99832.66;5122762;28;19958;-84
2022/03/06 07:52:40;;;;;;;;;;;;;;;1.65;100.00;99851.31;5110631;28;20819;-85
2022/03/06 07:57:17;;;;;;;2.10;1.98;;;;;;;1.73;100.00;99846.31;5071061;27;2201805;-81
2022/03/06 07:59:43;;;;;;;;;;;;;;;1.77;99.46;99866.34;5123934;27;20039;-84
2022/03/06 08:04:19;;;;;;;12.20;5.18;;;;;;;1.71;99.82;99858.41;5067703;27;2356054;-83
2022/03/06 08:06:47;;;;;;;3.95;3.65;;;;;;;1.80;99.61;99845.59;5125140;28;20118;-84
2022/03/06 08:09:12;;;;;;;4.35;3.90;;;;;;;1.75;98.95;99826.44;5124661;28;20095;-83
2022/03/06 08:11:37;;;;;;;;;;;;;;;1.83;99.01;99845.69;5124960;28;20424;-82
2022/03/06 08:14:03;;;;;;;;;;;;;;;2.08;98.88;99857.50;5125863;28;20614;-83
2022/03/06 08:16:28;;;;;;;4.70;4.40;;;;;;;1.70;98.97;99843.63;5124745;28;20471;-85
2022/03/06 08:18:54;;;;;;;;;;;;;;;1.75;100.00;99862.84;5125075;28;20130;-82
2022/03/06 08:21:19;;;;;;;4.40;4.05;;;;;;;1.57;99.58;99827.75;5106695;28;20382;-81
2022/03/06 08:23:44;;;;;;;;;;;;;;;1.83;98.20;99863.88;5105875;28;20046;-83
2022/03/06 08:26:10;;;;;;;;;;;;;;;1.78;98.40;99865.50;5112265;28;19916;-82
2022/03/06 08:28:35;;;;;;;2.63;2.53;;;;;;;1.87;98.55;99863.13;5125380;28;20506;-83
2022/03/06 08:31:01;;;;;;;;;;;;;;;1.91;98.49;99861.47;5124841;28;20050;-85
2022/03/06 08:33:26;;;;;;;;;;;;;;;1.89;98.50;99860.56;5125215;28;19963;-83
2022/03/06 08:35:52;;;;;;;6.00;5.57;;;;;;;1.84;98.93;99831.84;5125463;28;19979;-83
2022/03/06 08:38:18;;;;;;;2.47;2.38;;;;;;;1.61;97.19;99831.31;5124774;28;20269;-83
2022/03/06 08:40:44;;;;;;;;;;;;;;;1.87;98.59;99870.03;5124855;28;20064;-85
2022/03/06 08:43:09;;;;;;;2.55;2.45;;;;;;;1.83;98.14;99839.59;5119598;28;20420;-86
2022/03/06 08:45:36;;;;;;;;;;;;;;;1.92;98.19;99848.50;5105773;28;20035;-82
2022/03/06 08:48:03;;;;;;;3.75;3.42;;;;;;;1.46;98.41;99810.16;5124386;28;19908;-82
2022/03/06 08:50:28;;;;;;;3.97;3.70;;;;;;;1.27;98.24;99793.22;5124273;28;20076;-83
2022/03/06 08:52:53;;;;;;;;;;;;;;;1.66;99.06;99847.91;5105785;28;20451;-83
2022/03/06 08:55:19;;;;;;;;;;;;;;;1.65;98.58;99847.84;5124089;28;19958;-81
2022/03/06 08:57:44;;;;;;;2.38;2.17;;;;;;;1.53;98.89;99853.63;5123381;28;19936;-86
2022/03/06 09:00:10;;;;;;;;;;;;;;;1.71;99.48;99867.06;5124884;28;20509;-83
2022/03/06 09:02:35;;;;;;;;;;;;;;;1.79;98.93;99865.56;5124749;28;19962;-82
2022/03/06 09:05:00;;;;;;;;;;;;;;;1.72;98.88;99860.16;5122755;28;20388;-84
2022/03/06 09:07:27;;;;;;;4.22;3.83;;;;;;;1.51;98.27;99843.19;5122778;28;19927;-82
2022/03/06 09:09:53;;;;;;;5.10;4.00;;;;;;;1.49;98.54;99834.50;5123340;28;20127;-82
2022/03/06 09:12:19;;;;;;;;;;;;;;;1.71;98.38;99863.59;5123219;28;20118;-82
2022/03/06 09:14:45;;;;;;;;;;;;;;;1.84;98.85;99865.66;5097238;28;20316;-81
2022/03/06 09:17:10;;;;;;;;;;;;;;;1.88;98.65;99861.38;5109821;28;19916;-82
2022/03/06 09:19:35;;;;;;;;;;;;;;;1.97;98.39;99870.28;5110533;28;19915;-81
2022/03/06 09:22:01;;;;;;;;;;;;;;;1.85;98.14;99866.53;5109463;28;20010;-83
2022/03/06 09:24:26;;;;;;;;;;;;;;;1.82;98.88;99879.47;5109783;28;20344;-83
2022/03/06 09:26:51;;;;;;;;;;;;;;;1.84;98.42;99877.75;5109814;28;20002;-82
2022/03/06 09:29:17;;;;;;;;;;;;;;;1.71;98.44;99874.00;5091700;28;20006;-83
2022/03/06 09:31:43;;;;;;;;;;;;;;;1.71;99.01;99868.81;5110073;28;19916;-83
2022/03/06 09:34:08;;;;;;;;;;;;;;;1.72;98.81;99867.97;5109710;28;19916;-83
2022/03/06 09:36:35;;;;;;;;;;;;;;;1.70;98.10;99878.34;5110217;28;20528;-83
2022/03/06 09:39:00;;;;;;;;;;;;;;;1.77;98.60;99872.41;5109620;28;19915;-82
2022/03/06 09:41:26;;;;;;;;;;;;;;;1.83;98.30;99865.63;5109857;28;19958;-82
2022/03/06 09:43:53;;;;;;;;;;;;;;;1.86;97.72;99857.88;5109592;28;19916;-82
2022/03/06 09:46:19;;;;;;;;;;;;;;;1.68;96.51;99860.94;5108930;28;19916;-83
2022/03/06 09:48:45;;;;;;;;;;;;;;;1.68;97.37;99871.34;5109881;28;20438;-83
2022/03/06 09:51:10;;;;;;;;;;;;;;;1.70;97.40;99874.84;5108654;28;20023;-83
2022/03/06 09:53:35;;;;;;;;;;;;;;;1.70;97.07;99860.13;5109150;28;19919;-84
2022/03/06 09:56:01;;;;;;;;;;;;;;;1.70;97.04;99861.84;5109854;28;19926;-83
2022/03/06 09:58:26;;;;;;;;;;;;;;;1.70;97.03;99862.75;5090636;28;19915;-84
2022/03/06 10:00:52;;;;;;;;;;;;;;;1.83;97.05;99860.41;5109950;28;20378;-84
2022/03/06 10:03:18;;;;;;;;;;;;;;;1.90;97.04;99863.19;5109829;28;19934;-83
2022/03/06 10:05:43;;;;;;;;;;;;;;;1.68;96.63;99859.19;5109301;28;19951;-84
2022/03/06 10:08:16;;;;;;;;;;;;;;;1.52;97.72;99860.56;5109522;28;19957;-83
2022/03/06 10:10:42;;;;;;;;;;;;;;;1.64;98.38;99861.69;5109693;28;19923;-85
2022/03/06 10:13:08;;;;;;;;;;;;;;;1.68;98.02;99860.94;5091749;28;19912;-84
2022/03/06 10:15:53;;;;;;;;;;;;;;;1.67;97.29;99861.75;5109503;28;20317;-84
2022/03/06 10:18:18;;;;;;;;;;;;;;;1.64;97.53;99851.28;5109437;28;19916;-85
2022/03/06 10:20:44;;;;;;;;;;;;;;;1.57;97.49;99858.06;5109028;28;19973;-84
2022/03/06 10:23:22;;;;;;;;;;;;;;;1.61;97.66;99850.38;5108999;28;19922;-83
2022/03/06 10:25:58;;;;;;;;;;;;;;;1.70;97.67;99852.34;5108145;28;19915;-83
2022/03/06 10:28:24;;;;;;;;;;;;;;;1.73;98.21;99848.91;5109145;28;19912;-83
2022/03/06 10:30:49;;;;;;;;;;;;;;;1.62;97.50;99843.44;5109178;28;20475;-84
2022/03/06 10:33:21;;;;;;;;;;;;;;;1.78;98.04;99842.09;5109212;28;19919;-84
2022/03/06 10:35:47;;;;;;;;;;;;;;;1.81;97.29;99839.56;5109153;28;19964;-86
2022/03/06 10:38:21;;;;;;;;;;;;;;;1.78;97.13;99842.09;5108856;28;19967;-86
2022/03/06 10:40:46;;;;;;;;;;;;;;;1.79;97.55;99839.53;5109194;28;19960;-84
2022/03/06 10:43:19;;;;;;;;;;;;;;;2.00;96.85;99853.88;5109010;28;19923;-87
2022/03/06 10:45:45;;;;;;;;;;;;;;;1.92;96.47;99843.28;5102763;28;19923;-86
2022/03/06 10:48:10;;;;;;;;;;;;;;;1.94;96.83;99843.31;5097596;28;20656;-88
2022/03/06 10:50:35;;;;;;;;;;;;;;;1.90;97.25;99839.78;5108651;28;19915;-81
2022/03/06 10:53:01;;;;;;;;;;;;;;;1.94;96.23;99844.19;5105491;28;19920;-82
2022/03/06 10:55:35;;;;;;;;;;;;;;;2.01;95.84;99833.91;5108123;28;19922;-82
2022/03/06 10:58:03;;;;;;;;;;;;;;;1.99;96.52;99833.00;5108214;28;19931;-82
2022/03/06 11:00:29;;;;;;;;;;;;;;;2.03;96.39;99832.25;5107978;28;20381;-81
2022/03/06 11:02:55;;;;;;;;;;;;;;;2.11;96.44;99833.28;5108772;28;19920;-82
2022/03/06 11:05:21;;;;;;;;;;;;;;;2.00;95.93;99827.84;5108520;28;19941;-82
2022/03/06 11:07:47;;;;;;;;;;;;;;;2.11;96.39;99826.34;5107554;28;20397;-83
2022/03/06 11:10:12;;;;;;;;;;;;;;;2.03;96.27;99827.91;5108677;28;19916;-82
2022/03/06 11:12:38;;;;;;;;;;;;;;;2.08;95.76;99828.88;5107565;28;20350;-83
2022/03/06 11:15:03;;;;;;;;;;;;;;;2.23;96.06;99828.34;5090135;28;19916;-82
2022/03/06 11:17:30;;;;;;;;;;;;;;;2.23;95.51;99825.72;5108024;28;19968;-82
2022/03/06 11:19:56;;;;;;;;;;;;;;;2.26;94.93;99825.78;5107923;28;19915;-83
2022/03/06 11:22:24;;;;;;;;;;;;;;;2.23;94.53;99815.31;5107270;28;19926;-82
2022/03/06 11:24:52;;;;;;;;;;;;;;;2.26;94.37;99810.16;5107435;28;20009;-82
2022/03/06 11:27:36;;;;;;;;;;;;;;;2.14;94.10;99817.72;5089550;28;19939;-82
2022/03/06 11:30:04;;;;;;;;;;;;;;;2.01;94.20;99802.69;5108354;28;19912;-84
2022/03/06 11:32:31;;;;;;;;;;;;;;;1.97;93.81;99805.22;5108267;28;19912;-86
2022/03/06 11:35:10;;;;;;;;;;;;;;;1.84;93.83;99795.41;5089199;28;20422;-87
2022/03/06 11:37:49;;;;;;;;;;;;;;;1.96;94.36;99797.38;5107342;28;19919;-83
2022/03/06 11:40:48;;;;;;;;;;;;;;;2.14;92.44;99792.56;5107684;28;19938;-84
2022/03/06 11:43:29;;;;;;;;;;;;;;;2.20;92.59;99784.00;5092222;28;19962;-86
2022/03/06 11:46:16;;;;;;;;;;;;;;;2.43;91.76;99783.59;5107731;28;19968;-86
2022/03/06 11:48:44;;;;;;;;;;;;;;;2.53;91.77;99785.50;5107950;28;19919;-85
2022/03/06 11:51:25;;;;;;;;;;;;;;;2.59;91.22;99788.22;5089410;28;20363;-84
2022/03/06 11:54:03;;;;;;;;;;;;;;;2.41;93.04;99780.97;5107740;28;19966;-84
2022/03/06 11:56:31;;;;;;;;;;;;;;;2.64;92.79;99781.41;5107539;28;20382;-84
2022/03/06 11:58:57;;;;;;;;;;;;;;;2.80;92.52;99789.50;5107871;28;19915;-83
2022/03/06 12:01:26;;;;;;;;;;;;;;;2.45;93.39;99771.47;5107582;28;19934;-83
2022/03/06 12:03:54;;;;;;;;;;;;;;;2.37;94.84;99770.47;5107734;28;19919;-83
2022/03/06 12:06:19;;;;;;;;;;;;;;;2.40;94.52;99774.00;5107477;28;19970;-84
2022/03/06 12:08:45;;;;;;;;;;;;;;;2.42;94.44;99774.03;5107785;28;20370;-84
2022/03/06 12:11:11;;;;;;;;;;;;;;;2.45;94.93;99772.34;5107186;28;19919;-82
2022/03/06 12:13:39;;;;;;;;;;;;;;;2.57;93.98;99773.44;5089539;28;20016;-83
2022/03/06 12:16:05;;;;;;;;;;;;;;;2.48;94.22;99771.53;5107792;28;19915;-83
2022/03/06 12:18:31;;;;;;;;;;;;;;;2.60;94.93;99768.28;5107984;28;19922;-84
2022/03/06 12:20:57;;;;;;;;;;;;;;;2.55;94.64;99764.72;5107377;28;20026;-84
2022/03/06 12:23:29;;;;;;;;;;;;;;;2.39;95.02;99761.81;5088266;28;19915;-84
2022/03/06 12:25:55;;;;;;;;;;;;;;;2.38;95.14;99757.47;5106708;28;20056;-84
2022/03/06 12:28:23;;;;;;;;;;;;;;;2.42;94.69;99755.81;5107244;28;19918;-84
2022/03/06 12:30:48;;;;;;;;;;;;;;;2.39;95.27;99753.13;5088737;28;20321;-84